sensor_id;sensor_type;location;lat;lon;timestamp;pressure;altitude;pressure_sealevel;temperature;humidity
25130;BME280;13308;50.860;13.664;2023-01-19T07:16:21;95607.84;;;-4.41;100.00
25130;BME280;13308;50.860;13.664;2023-01-19T07:18:47;95613.63;;;-4.23;100.00
25130;BME280;13308;50.860;13.664;2023-01-19T07:21:13;95608.44;;;-4.13;100.00
25130;BME280;13308;50.860;13.664;2023-01-19T07:23:38;95612.13;;;-4.21;100.00
25130;BME280;13308;50.860;13.664;2023-01-19T07:26:04;95617.25;;;-4.16;99.28
25130;BME280;13308;50.860;13.664;2023-01-19T07:28:29;95624.78;;;-4.21;99.91
25130;BME280;13308;50.860;13.664;2023-01-19T07:30:55;95621.41;;;-4.18;99.20
25130;BME280;13308;50.860;13.664;2023-01-19T07:33:22;95617.25;;;-4.16;98.94
25130;BME280;13308;50.860;13.664;2023-01-19T07:35:48;95623.81;;;-4.13;98.74
25130;BME280;13308;50.860;13.664;2023-01-19T07:38:14;95626.13;;;-4.12;98.29
25130;BME280;13308;50.860;13.664;2023-01-19T07:40:40;95631.38;;;-4.19;99.11
25130;BME280;13308;50.860;13.664;2023-01-19T07:43:05;95639.38;;;-4.22;98.89
25130;BME280;13308;50.860;13.664;2023-01-19T07:45:31;95648.25;;;-4.22;99.02
25130;BME280;13308;50.860;13.664;2023-01-19T07:47:56;95640.25;;;-4.18;99.31
25130;BME280;13308;50.860;13.664;2023-01-19T07:50:21;95641.47;;;-4.16;99.57
25130;BME280;13308;50.860;13.664;2023-01-19T07:52:50;95636.50;;;-3.95;98.72
25130;BME280;13308;50.860;13.664;2023-01-19T07:55:18;95642.94;;;-3.80;98.54
25130;BME280;13308;50.860;13.664;2023-01-19T07:57:43;95637.19;;;-3.79;98.03
25130;BME280;13308;50.860;13.664;2023-01-19T08:00:09;95645.66;;;-3.58;97.14
25130;BME280;13308;50.860;13.664;2023-01-19T08:02:37;95652.63;;;-3.57;97.78
25130;BME280;13308;50.860;13.664;2023-01-19T08:05:03;95648.63;;;-3.44;97.00
25130;BME280;13308;50.860;13.664;2023-01-19T08:07:28;95657.97;;;-3.38;97.05
25130;BME280;13308;50.860;13.664;2023-01-19T08:09:53;95653.97;;;-3.25;96.45
25130;BME280;13308;50.860;13.664;2023-01-19T08:12:19;95652.31;;;-3.10;96.03
25130;BME280;13308;50.860;13.664;2023-01-19T08:14:44;95661.16;;;-3.10;95.85
25130;BME280;13308;50.860;13.664;2023-01-19T08:17:12;95674.28;;;-3.08;96.55
25130;BME280;13308;50.860;13.664;2023-01-19T08:19:37;95669.56;;;-2.92;95.90
25130;BME280;13308;50.860;13.664;2023-01-19T08:22:03;95669.19;;;-2.91;96.03
25130;BME280;13308;50.860;13.664;2023-01-19T08:24:28;95670.13;;;-2.80;96.51
25130;BME280;13308;50.860;13.664;2023-01-19T08:27:01;95675.47;;;-2.61;95.53
25130;BME280;13308;50.860;13.664;2023-01-19T08:29:26;95688.50;;;-2.40;94.33
25130;BME280;13308;50.860;13.664;2023-01-19T08:31:54;95680.97;;;-2.28;94.40
25130;BME280;13308;50.860;13.664;2023-01-19T08:34:21;95678.88;;;-2.12;94.72
25130;BME280;13308;50.860;13.664;2023-01-19T08:36:46;95678.88;;;-2.12;94.52
25130;BME280;13308;50.860;13.664;2023-01-19T08:39:12;95678.72;;;-1.96;95.13
25130;BME280;13308;50.860;13.664;2023-01-19T08:41:37;95684.72;;;-1.80;94.15
25130;BME280;13308;50.860;13.664;2023-01-19T08:44:03;95670.97;;;-1.68;93.85
25130;BME280;13308;50.860;13.664;2023-01-19T08:46:28;95675.06;;;-1.48;93.69
25130;BME280;13308;50.860;13.664;2023-01-19T08:48:53;95680.41;;;-1.19;92.12
25130;BME280;13308;50.860;13.664;2023-01-19T08:51:19;95672.31;;;-1.19;92.82
25130;BME280;13308;50.860;13.664;2023-01-19T08:53:45;95673.47;;;-1.16;92.39
25130;BME280;13308;50.860;13.664;2023-01-19T08:56:10;95672.53;;;-0.94;92.22
25130;BME280;13308;50.860;13.664;2023-01-19T08:58:41;95681.16;;;-0.82;91.80
25130;BME280;13308;50.860;13.664;2023-01-19T09:01:07;95673.81;;;-0.81;92.37
25130;BME280;13308;50.860;13.664;2023-01-19T09:03:34;95674.41;;;-0.55;90.60
25130;BME280;13308;50.860;13.664;2023-01-19T09:06:00;95677.97;;;-0.44;90.88
25130;BME280;13308;50.860;13.664;2023-01-19T09:08:26;95679.28;;;-0.24;90.25
25130;BME280;13308;50.860;13.664;2023-01-19T09:10:51;95681.78;;;0.02;88.32
25130;BME280;13308;50.860;13.664;2023-01-19T09:13:17;95683.38;;;0.10;86.38
25130;BME280;13308;50.860;13.664;2023-01-19T09:15:43;95688.50;;;0.29;85.76
25130;BME280;13308;50.860;13.664;2023-01-19T09:18:17;95681.63;;;0.42;85.63
25130;BME280;13308;50.860;13.664;2023-01-19T09:20:45;95687.41;;;0.37;85.57
25130;BME280;13308;50.860;13.664;2023-01-19T09:23:12;95685.88;;;0.46;85.04
25130;BME280;13308;50.860;13.664;2023-01-19T09:25:42;95692.50;;;0.56;84.89
25130;BME280;13308;50.860;13.664;2023-01-19T09:28:10;95686.75;;;0.68;84.63
25130;BME280;13308;50.860;13.664;2023-01-19T09:30:38;95701.88;;;0.72;82.80
25130;BME280;13308;50.860;13.664;2023-01-19T09:33:05;95697.59;;;0.75;83.41
25130;BME280;13308;50.860;13.664;2023-01-19T09:35:34;95692.66;;;1.19;81.27
25130;BME280;13308;50.860;13.664;2023-01-19T09:37:59;95705.13;;;1.34;80.95
25130;BME280;13308;50.860;13.664;2023-01-19T09:40:26;95702.44;;;1.69;79.21
25130;BME280;13308;50.860;13.664;2023-01-19T09:42:57;95692.28;;;2.08;77.47
25130;BME280;13308;50.860;13.664;2023-01-19T09:45:39;95692.66;;;2.17;74.58
25130;BME280;13308;50.860;13.664;2023-01-19T09:48:25;95697.63;;;2.50;76.60
25130;BME280;13308;50.860;13.664;2023-01-19T09:50:55;95697.53;;;2.78;75.73
25130;BME280;13308;50.860;13.664;2023-01-19T09:54:02;95691.63;;;2.90;73.39
25130;BME280;13308;50.860;13.664;2023-01-19T09:56:29;95701.06;;;3.43;71.67
25130;BME280;13308;50.860;13.664;2023-01-19T09:58:55;95702.81;;;3.71;69.70
25130;BME280;13308;50.860;13.664;2023-01-19T10:01:33;95696.78;;;3.46;70.08
25130;BME280;13308;50.860;13.664;2023-01-19T10:04:15;95697.63;;;3.83;69.92
25130;BME280;13308;50.860;13.664;2023-01-19T10:06:42;95700.94;;;4.08;68.39
25130;BME280;13308;50.860;13.664;2023-01-19T10:09:19;95693.88;;;4.51;65.69
25130;BME280;13308;50.860;13.664;2023-01-19T10:11:54;95696.28;;;4.46;64.76
25130;BME280;13308;50.860;13.664;2023-01-19T10:14:33;95694.84;;;5.01;63.14
25130;BME280;13308;50.860;13.664;2023-01-19T10:20:03;95691.81;;;4.96;62.96
25130;BME280;13308;50.860;13.664;2023-01-19T10:22:32;95694.69;;;5.42;61.93
25130;BME280;13308;50.860;13.664;2023-01-19T10:25:00;95683.19;;;5.54;60.90
25130;BME280;13308;50.860;13.664;2023-01-19T10:27:31;95685.66;;;5.45;60.55
25130;BME280;13308;50.860;13.664;2023-01-19T10:29:58;95682.81;;;4.95;61.93
25130;BME280;13308;50.860;13.664;2023-01-19T10:32:27;95668.63;;;5.87;60.06
25130;BME280;13308;50.860;13.664;2023-01-19T10:34:54;95672.50;;;5.89;60.16
25130;BME280;13308;50.860;13.664;2023-01-19T10:37:33;95673.44;;;5.53;60.73
25130;BME280;13308;50.860;13.664;2023-01-19T10:42:37;95670.56;;;5.63;60.52
25130;BME280;13308;50.860;13.664;2023-01-19T10:45:13;95678.44;;;5.58;59.43
25130;BME280;13308;50.860;13.664;2023-01-19T10:47:39;95670.50;;;5.67;60.46
25130;BME280;13308;50.860;13.664;2023-01-19T10:50:22;95668.00;;;5.76;59.89
25130;BME280;13308;50.860;13.664;2023-01-19T10:52:49;95661.84;;;4.89;61.52
25130;BME280;13308;50.860;13.664;2023-01-19T10:55:26;95667.56;;;4.98;61.76
25130;BME280;13308;50.860;13.664;2023-01-19T10:57:52;95676.69;;;5.18;61.64
25130;BME280;13308;50.860;13.664;2023-01-19T11:02:58;95675.69;;;5.31;60.71
25130;BME280;13308;50.860;13.664;2023-01-19T11:05:29;95668.34;;;4.98;60.79
25130;BME280;13308;50.860;13.664;2023-01-19T11:07:55;95684.19;;;4.80;61.17
25130;BME280;13308;50.860;13.664;2023-01-19T11:10:22;95679.25;;;4.68;63.22
25130;BME280;13308;50.860;13.664;2023-01-19T11:13:01;95680.69;;;5.10;63.51
25130;BME280;13308;50.860;13.664;2023-01-19T11:15:40;95669.06;;;4.39;62.82
25130;BME280;13308;50.860;13.664;2023-01-19T11:18:06;95671.44;;;4.37;64.36
25130;BME280;13308;50.860;13.664;2023-01-19T11:20:46;95671.59;;;4.23;63.11
25130;BME280;13308;50.860;13.664;2023-01-19T11:25:38;95663.06;;;4.51;64.05
25130;BME280;13308;50.860;13.664;2023-01-19T11:28:04;95678.34;;;4.45;62.16
25130;BME280;13308;50.860;13.664;2023-01-19T11:30:30;95673.16;;;4.20;64.66
25130;BME280;13308;50.860;13.664;2023-01-19T11:32:55;95661.16;;;4.48;63.08
25130;BME280;13308;50.860;13.664;2023-01-19T11:35:31;95663.91;;;4.11;62.48
25130;BME280;13308;50.860;13.664;2023-01-19T11:38:16;95673.47;;;3.89;65.29
25130;BME280;13308;50.860;13.664;2023-01-19T11:40:51;95671.06;;;4.31;63.06
25130;BME280;13308;50.860;13.664;2023-01-19T11:43:20;95677.28;;;4.69;64.11
25130;BME280;13308;50.860;13.664;2023-01-19T11:45:46;95677.63;;;4.41;62.55
25130;BME280;13308;50.860;13.664;2023-01-19T11:48:21;95671.47;;;4.67;61.72
25130;BME280;13308;50.860;13.664;2023-01-19T11:50:48;95670.97;;;4.75;61.71
25130;BME280;13308;50.860;13.664;2023-01-19T11:53:50;95684.69;;;4.72;61.31
25130;BME280;13308;50.860;13.664;2023-01-19T11:56:16;95690.53;;;4.70;61.07
25130;BME280;13308;50.860;13.664;2023-01-19T11:58:45;95681.25;;;4.64;61.03
25130;BME280;13308;50.860;13.664;2023-01-19T12:01:35;95686.00;;;5.20;60.78
25130;BME280;13308;50.860;13.664;2023-01-19T12:04:24;95680.13;;;5.48;59.06
25130;BME280;13308;50.860;13.664;2023-01-19T12:06:55;95682.97;;;5.68;58.76
25130;BME280;13308;50.860;13.664;2023-01-19T12:09:32;95680.88;;;5.26;59.53
25130;BME280;13308;50.860;13.664;2023-01-19T12:12:05;95676.47;;;5.32;59.21
25130;BME280;13308;50.860;13.664;2023-01-19T12:14:51;95679.78;;;5.20;58.70
25130;BME280;13308;50.860;13.664;2023-01-19T12:17:25;95686.69;;;4.98;60.22
25130;BME280;13308;50.860;13.664;2023-01-19T12:19:58;95681.22;;;4.68;61.29
25130;BME280;13308;50.860;13.664;2023-01-19T12:22:25;95686.53;;;5.38;59.76
25130;BME280;13308;50.860;13.664;2023-01-19T12:25:17;95686.72;;;5.77;58.71
25130;BME280;13308;50.860;13.664;2023-01-19T12:27:46;95683.78;;;5.42;59.59
25130;BME280;13308;50.860;13.664;2023-01-19T12:32:45;95680.41;;;5.84;57.97
25130;BME280;13308;50.860;13.664;2023-01-19T12:38:34;95691.38;;;5.84;57.53
25130;BME280;13308;50.860;13.664;2023-01-19T12:41:21;95685.66;;;5.98;57.28
25130;BME280;13308;50.860;13.664;2023-01-19T12:46:33;95679.94;;;6.12;57.19
25130;BME280;13308;50.860;13.664;2023-01-19T12:49:17;95676.66;;;5.71;56.62
25130;BME280;13308;50.860;13.664;2023-01-19T12:51:46;95679.38;;;6.20;57.12
25130;BME280;13308;50.860;13.664;2023-01-19T12:54:29;95675.00;;;5.77;57.11
25130;BME280;13308;50.860;13.664;2023-01-19T12:57:16;95674.44;;;6.12;58.60
25130;BME280;13308;50.860;13.664;2023-01-19T12:59:43;95670.16;;;5.88;57.58
25130;BME280;13308;50.860;13.664;2023-01-19T13:13:34;95664.81;;;6.27;55.74
25130;BME280;13308;50.860;13.664;2023-01-19T13:18:56;95659.22;;;6.34;54.99
25130;BME280;13308;50.860;13.664;2023-01-19T13:21:28;95662.69;;;5.65;56.80
25130;BME280;13308;50.860;13.664;2023-01-19T13:24:02;95668.63;;;5.87;56.46
25130;BME280;13308;50.860;13.664;2023-01-19T13:26:36;95666.78;;;5.54;56.05
25130;BME280;13308;50.860;13.664;2023-01-19T13:29:09;95662.13;;;5.51;56.74
25130;BME280;13308;50.860;13.664;2023-01-19T13:31:39;95673.91;;;5.97;56.08
25130;BME280;13308;50.860;13.664;2023-01-19T13:34:12;95660.72;;;5.43;56.59
25130;BME280;13308;50.860;13.664;2023-01-19T13:36:42;95656.03;;;5.93;56.30
25130;BME280;13308;50.860;13.664;2023-01-19T13:39:19;95657.09;;;5.72;56.59
25130;BME280;13308;50.860;13.664;2023-01-19T13:41:48;95660.47;;;5.57;57.51
25130;BME280;13308;50.860;13.664;2023-01-19T13:44:20;95667.03;;;5.89;56.75
25130;BME280;13308;50.860;13.664;2023-01-19T13:46:49;95656.81;;;5.67;56.35
25130;BME280;13308;50.860;13.664;2023-01-19T13:49:34;95651.94;;;6.24;55.92
25130;BME280;13308;50.860;13.664;2023-01-19T13:52:14;95653.28;;;6.16;56.24
25130;BME280;13308;50.860;13.664;2023-01-19T13:54:53;95657.25;;;6.54;55.38
25130;BME280;13308;50.860;13.664;2023-01-19T13:57:30;95655.66;;;7.31;54.57
25130;BME280;13308;50.860;13.664;2023-01-19T14:02:37;95662.81;;;6.89;54.51
25130;BME280;13308;50.860;13.664;2023-01-19T14:05:20;95665.91;;;6.52;54.14
25130;BME280;13308;50.860;13.664;2023-01-19T14:07:47;95664.69;;;6.34;54.68
25130;BME280;13308;50.860;13.664;2023-01-19T14:10:15;95675.66;;;6.11;54.90
25130;BME280;13308;50.860;13.664;2023-01-19T14:12:43;95662.97;;;5.48;55.56
25130;BME280;13308;50.860;13.664;2023-01-19T14:15:11;95668.75;;;5.80;55.49
25130;BME280;13308;50.860;13.664;2023-01-19T14:17:39;95670.97;;;6.11;54.58
25130;BME280;13308;50.860;13.664;2023-01-19T14:20:26;95667.50;;;6.07;54.44
25130;BME280;13308;50.860;13.664;2023-01-19T14:22:51;95667.81;;;5.90;54.75
25130;BME280;13308;50.860;13.664;2023-01-19T14:30:58;95655.28;;;3.24;60.97
25130;BME280;13308;50.860;13.664;2023-01-19T14:36:32;95654.25;;;2.01;66.62
25130;BME280;13308;50.860;13.664;2023-01-19T14:38:59;95655.81;;;1.88;70.03
25130;BME280;13308;50.860;13.664;2023-01-19T14:41:37;95648.47;;;1.64;71.33
25130;BME280;13308;50.860;13.664;2023-01-19T14:44:16;95644.63;;;1.47;72.91
25130;BME280;13308;50.860;13.664;2023-01-19T14:46:46;95651.97;;;1.36;73.98
25130;BME280;13308;50.860;13.664;2023-01-19T14:49:17;95652.34;;;1.21;74.63
25130;BME280;13308;50.860;13.664;2023-01-19T14:51:45;95666.69;;;1.11;75.93
25130;BME280;13308;50.860;13.664;2023-01-19T14:54:28;95667.41;;;0.90;76.53
25130;BME280;13308;50.860;13.664;2023-01-19T14:56:54;95660.44;;;0.86;76.54
25130;BME280;13308;50.860;13.664;2023-01-19T14:59:20;95665.84;;;0.72;77.38
25130;BME280;13308;50.860;13.664;2023-01-19T15:01:45;95664.25;;;0.71;77.62
25130;BME280;13308;50.860;13.664;2023-01-19T15:04:10;95660.72;;;0.56;78.10
25130;BME280;13308;50.860;13.664;2023-01-19T15:06:39;95662.69;;;0.56;78.31
25130;BME280;13308;50.860;13.664;2023-01-19T15:09:05;95668.06;;;0.42;78.96
25130;BME280;13308;50.860;13.664;2023-01-19T15:11:34;95671.13;;;0.33;79.67
25130;BME280;13308;50.860;13.664;2023-01-19T15:14:00;95673.38;;;0.21;80.72
25130;BME280;13308;50.860;13.664;2023-01-19T15:16:27;95675.34;;;0.31;80.36
25130;BME280;13308;50.860;13.664;2023-01-19T15:18:52;95674.88;;;0.15;81.32
25130;BME280;13308;50.860;13.664;2023-01-19T15:21:19;95674.88;;;0.15;81.87
25130;BME280;13308;50.860;13.664;2023-01-19T15:23:47;95673.28;;;0.00;82.60
25130;BME280;13308;50.860;13.664;2023-01-19T15:26:15;95672.41;;;-0.11;82.51
25130;BME280;13308;50.860;13.664;2023-01-19T15:28:41;95671.97;;;-0.20;83.41
25130;BME280;13308;50.860;13.664;2023-01-19T15:31:14;95675.38;;;-0.30;84.48
25130;BME280;13308;50.860;13.664;2023-01-19T15:33:40;95677.72;;;-0.28;84.43
25130;BME280;13308;50.860;13.664;2023-01-19T15:36:14;95673.06;;;-0.28;83.97
25130;BME280;13308;50.860;13.664;2023-01-19T15:38:40;95671.09;;;-0.34;84.20
25130;BME280;13308;50.860;13.664;2023-01-19T15:41:21;95682.22;;;-0.46;84.79
25130;BME280;13308;50.860;13.664;2023-01-19T15:43:47;95683.34;;;-0.51;85.53
25130;BME280;13308;50.860;13.664;2023-01-19T15:46:13;95685.25;;;-0.55;85.24
25130;BME280;13308;50.860;13.664;2023-01-19T15:48:40;95693.03;;;-0.46;84.71
25130;BME280;13308;50.860;13.664;2023-01-19T15:51:11;95692.59;;;-0.55;84.96
25130;BME280;13308;50.860;13.664;2023-01-19T15:53:36;95695.19;;;-0.66;85.64
25130;BME280;13308;50.860;13.664;2023-01-19T15:56:01;95702.25;;;-0.58;84.94
25130;BME280;13308;50.860;13.664;2023-01-19T15:58:27;95699.13;;;-0.60;85.43
25130;BME280;13308;50.860;13.664;2023-01-19T16:00:54;95696.34;;;-0.67;85.87
25130;BME280;13308;50.860;13.664;2023-01-19T16:03:19;95695.13;;;-0.73;86.14
25130;BME280;13308;50.860;13.664;2023-01-19T16:05:45;95709.00;;;-0.78;86.38
25130;BME280;13308;50.860;13.664;2023-01-19T16:08:12;95701.97;;;-0.86;86.72
25130;BME280;13308;50.860;13.664;2023-01-19T16:10:38;95698.97;;;-0.77;86.93
25130;BME280;13308;50.860;13.664;2023-01-19T16:13:04;95709.00;;;-0.78;86.73
25130;BME280;13308;50.860;13.664;2023-01-19T16:15:29;95704.63;;;-0.93;87.25
25130;BME280;13308;50.860;13.664;2023-01-19T16:17:54;95711.28;;;-0.83;87.75
25130;BME280;13308;50.860;13.664;2023-01-19T16:20:20;95704.97;;;-0.98;87.81
25130;BME280;13308;50.860;13.664;2023-01-19T16:22:45;95721.16;;;-1.01;88.65
25130;BME280;13308;50.860;13.664;2023-01-19T16:25:11;95709.91;;;-1.07;88.14
25130;BME280;13308;50.860;13.664;2023-01-19T16:27:36;95707.09;;;-1.14;88.73
25130;BME280;13308;50.860;13.664;2023-01-19T16:30:02;95706.38;;;-1.11;88.92
25130;BME280;13308;50.860;13.664;2023-01-19T16:32:32;95710.22;;;-1.12;89.06
25130;BME280;13308;50.860;13.664;2023-01-19T16:34:58;95706.34;;;-1.14;89.29
25130;BME280;13308;50.860;13.664;2023-01-19T16:37:23;95722.94;;;-1.16;89.80
25130;BME280;13308;50.860;13.664;2023-01-19T16:39:50;95724.00;;;-1.24;89.75
25130;BME280;13308;50.860;13.664;2023-01-19T16:42:16;95725.56;;;-1.23;89.51
25130;BME280;13308;50.860;13.664;2023-01-19T16:44:41;95728.59;;;-1.28;90.30
25130;BME280;13308;50.860;13.664;2023-01-19T16:47:07;95724.66;;;-1.34;90.78
25130;BME280;13308;50.860;13.664;2023-01-19T16:49:32;95732.41;;;-1.32;90.28
25130;BME280;13308;50.860;13.664;2023-01-19T16:51:57;95726.25;;;-1.29;90.62
25130;BME280;13308;50.860;13.664;2023-01-19T16:54:24;95722.28;;;-1.39;90.43
25130;BME280;13308;50.860;13.664;2023-01-19T16:56:51;95734.00;;;-1.28;90.72
25130;BME280;13308;50.860;13.664;2023-01-19T16:59:17;95733.66;;;-1.23;90.84
25130;BME280;13308;50.860;13.664;2023-01-19T17:01:44;95731.19;;;-1.38;90.57
25130;BME280;13308;50.860;13.664;2023-01-19T17:04:10;95733.41;;;-1.44;90.89
25130;BME280;13308;50.860;13.664;2023-01-19T17:06:36;95718.56;;;-1.27;91.08
25130;BME280;13308;50.860;13.664;2023-01-19T17:09:01;95737.84;;;-1.29;90.42
25130;BME280;13308;50.860;13.664;2023-01-19T17:11:28;95738.19;;;-1.34;90.46
25130;BME280;13308;50.860;13.664;2023-01-19T17:16:22;95732.59;;;-1.48;91.88
25130;BME280;13308;50.860;13.664;2023-01-19T17:18:48;95736.78;;;-1.54;92.07
25130;BME280;13308;50.860;13.664;2023-01-19T17:21:13;95736.66;;;-1.61;92.55
25130;BME280;13308;50.860;13.664;2023-01-19T17:23:43;95743.22;;;-1.62;92.35
25130;BME280;13308;50.860;13.664;2023-01-19T17:26:08;95747.81;;;-1.66;93.15
25130;BME280;13308;50.860;13.664;2023-01-19T17:28:34;95755.94;;;-1.66;93.60
25130;BME280;13308;50.860;13.664;2023-01-19T17:31:07;95755.09;;;-1.70;93.79
25130;BME280;13308;50.860;13.664;2023-01-19T17:33:33;95744.91;;;-1.80;94.36
25130;BME280;13308;50.860;13.664;2023-01-19T17:36:06;95749.59;;;-1.77;94.05
25130;BME280;13308;50.860;13.664;2023-01-19T17:38:33;95754.22;;;-1.77;94.20
25130;BME280;13308;50.860;13.664;2023-01-19T17:40:58;95754.91;;;-1.84;94.25
25130;BME280;13308;50.860;13.664;2023-01-19T17:43:24;95758.09;;;-1.75;94.23
25130;BME280;13308;50.860;13.664;2023-01-19T17:45:49;95757.38;;;-1.72;94.48
25130;BME280;13308;50.860;13.664;2023-01-19T17:48:15;95766.63;;;-1.73;94.92
25130;BME280;13308;50.860;13.664;2023-01-19T17:50:42;95765.16;;;-1.67;95.12
25130;BME280;13308;50.860;13.664;2023-01-19T17:53:07;95766.03;;;-1.59;94.57
25130;BME280;13308;50.860;13.664;2023-01-19T17:55:32;95769.38;;;-1.40;94.52
25130;BME280;13308;50.860;13.664;2023-01-19T17:57:58;95771.56;;;-1.49;94.83
25130;BME280;13308;50.860;13.664;2023-01-19T18:00:24;95774.03;;;-1.37;95.05
25130;BME280;13308;50.860;13.664;2023-01-19T18:02:50;95773.38;;;-1.30;95.36
25130;BME280;13308;50.860;13.664;2023-01-19T18:05:16;95774.88;;;-1.33;95.50
25130;BME280;13308;50.860;13.664;2023-01-19T18:07:41;95773.91;;;-1.18;95.11
25130;BME280;13308;50.860;13.664;2023-01-19T18:10:07;95783.59;;;-1.17;95.63
25130;BME280;13308;50.860;13.664;2023-01-19T18:12:33;95778.59;;;-1.11;95.34
25130;BME280;13308;50.860;13.664;2023-01-19T18:14:58;95779.56;;;-0.97;94.55
25130;BME280;13308;50.860;13.664;2023-01-19T18:17:24;95779.91;;;-0.98;94.98
25130;BME280;13308;50.860;13.664;2023-01-19T18:19:49;95778.63;;;-0.75;94.73
25130;BME280;13308;50.860;13.664;2023-01-19T18:22:15;95779.78;;;-0.76;94.30
25130;BME280;13308;50.860;13.664;2023-01-19T18:24:40;95791.78;;;-0.77;94.74
25130;BME280;13308;50.860;13.664;2023-01-19T18:27:07;95791.78;;;-0.77;95.02
25130;BME280;13308;50.860;13.664;2023-01-19T18:29:33;95787.31;;;-0.59;95.10
25130;BME280;13308;50.860;13.664;2023-01-19T18:31:58;95794.22;;;-0.65;94.68
25130;BME280;13308;50.860;13.664;2023-01-19T18:34:23;95783.31;;;-0.68;95.15
25130;BME280;13308;50.860;13.664;2023-01-19T18:36:49;95785.00;;;-0.57;95.26
25130;BME280;13308;50.860;13.664;2023-01-19T18:39:14;95795.47;;;-0.55;95.36
25130;BME280;13308;50.860;13.664;2023-01-19T18:41:39;95796.72;;;-0.46;95.03
25130;BME280;13308;50.860;13.664;2023-01-19T18:44:09;95800.66;;;-0.40;95.14
25130;BME280;13308;50.860;13.664;2023-01-19T18:46:36;95794.88;;;-0.38;94.60
25130;BME280;13308;50.860;13.664;2023-01-19T18:49:01;95796.38;;;-0.41;94.80
25130;BME280;13308;50.860;13.664;2023-01-19T18:51:27;95789.81;;;-0.40;95.05
25130;BME280;13308;50.860;13.664;2023-01-19T18:53:52;95785.94;;;-0.39;94.98
25130;BME280;13308;50.860;13.664;2023-01-19T18:56:18;95798.41;;;-0.31;94.44
25130;BME280;13308;50.860;13.664;2023-01-19T18:58:43;95797.66;;;-0.28;94.84
25130;BME280;13308;50.860;13.664;2023-01-19T19:01:29;95807.75;;;-0.22;94.76
25130;BME280;13308;50.860;13.664;2023-01-19T19:03:55;95808.59;;;-0.14;94.93
25130;BME280;13308;50.860;13.664;2023-01-19T19:06:22;95812.41;;;-0.22;95.15
25130;BME280;13308;50.860;13.664;2023-01-19T19:08:52;95796.09;;;-0.29;95.97
25130;BME280;13308;50.860;13.664;2023-01-19T19:11:20;95812.41;;;-0.22;95.38
25130;BME280;13308;50.860;13.664;2023-01-19T19:13:50;95816.38;;;-0.13;94.91
25130;BME280;13308;50.860;13.664;2023-01-19T19:16:15;95819.94;;;-0.05;94.60
25130;BME280;13308;50.860;13.664;2023-01-19T19:18:41;95814.94;;;0.00;94.44
25130;BME280;13308;50.860;13.664;2023-01-19T19:21:09;95815.38;;;0.06;94.09
25130;BME280;13308;50.860;13.664;2023-01-19T19:23:36;95814.91;;;-0.03;94.68
25130;BME280;13308;50.860;13.664;2023-01-19T19:26:06;95815.25;;;-0.08;95.45
